Ash Fork, AZ

3:40 PM MST on September 27, 2016 (GMT -0700)
Rural Coconino County AZ, 3 miles north of Ash Fork, AZ | | Change Station

Elev 5410 ft 35.27 °N, 112.49 °W | Updated 6 seconds ago

Clear
Clear
73.0 °F
Feels Like 77 °F
N
0.0
Wind Variable Wind from ESE
Gusts 0.0 mph

Today
High -- | Low -- °F
--% Chance of Precip.
Yesterday
High -- | Low -- °F
Precip. -- in
Pressure 29.94 in
Visibility 10.0 miles
Clouds Clear
Heat Index 77 °F
Dew Point 49 °F
Humidity 43%
Rainfall 0.00 in
Snow Depth Not available.
6:22 AM 6:19 PM
Waning Crescent, 9% visible
METAR KPRC 272153Z 15007KT 120V190 10SM CLR 21/08 A3014 RMK AO2 RAB2059E11 SLP137 P0000 T02060078
Pressure 29.94 in
Visibility 10.0 miles
Clouds Clear
Heat Index 77 °F
Dew Point 49 °F
Humidity 43%
Rainfall 0.00 in
Snow Depth Not available.
6:22 AM 6:19 PM
Waning Crescent, 9% visible
METAR KPRC 272153Z 15007KT 120V190 10SM CLR 21/08 A3014 RMK AO2 RAB2059E11 SLP137 P0000 T02060078

10-Day Weather Forecast

Almanac

Astronomy

Sep. 27, 2016 Rise Set
Actual Time
Civil Twilight
Nautical Twilight
Astronomical Twilight
Moon
Length of Visible Light
Length of Day
Tomorrow will be .
, % of the Moon is Illuminated

Today's Extremes

State Highs State Lows

Community

WunderPhotos

Upload Photos

1,942,173 photos uploaded!

WunderBlog® & News

Nearby

Air Quality

  Air Quality AQ Index Pollutant
Not available.

Snow Depth

Station Depth Elevation

Earthquake Activity

City Distance Mag. Time & Date
Minimum magnitude displayed is 2.5.

Coastal Water Temperatures

Place Temperature

Stations

Nearby Weather Stations

Station Location Temp. Windchill Dew Point Humidity Wind Precip. Elev Updated Type
                   

Watches & Warnings

There are currently no watches in effect.